Time;durP1;ratioP1;P1;durP2;ratioP2;P2;SDS_P1;SDS_P2;PMS_P1;PMS_P2;Temp;Humidity;BMP_temperature;BMP_pressure;BME280_temperature;BME280_humidity;BME280_pressure;Samples;Min_cycle;Max_cycle;Signal;HPM_P1;HPM_P2
2021/03/19 00:01:05;;;;;;;6.40;5.80;;;1.30;99.90;;;;;;6201173;23;20414;-86
2021/03/19 00:03:59;;;;;;;7.27;5.80;;;1.20;99.90;;;;;;6204173;23;20473;-85
2021/03/19 00:06:43;;;;;;;8.70;6.20;;;1.20;99.90;;;;;;6237221;23;20386;-85
2021/03/19 00:09:33;;;;;;;;;;;;;;;;;;;;;
2021/03/19 00:12:21;;;;;;;8.10;5.90;;;1.20;99.90;;;;;;6237696;23;20379;-86
2021/03/19 00:15:10;;;;;;;5.47;4.97;;;1.20;99.90;;;;;;6200523;23;20414;-86
2021/03/19 00:18:15;;;;;;;6.10;5.53;;;1.10;99.90;;;;;;6200797;23;20465;-86
2021/03/19 00:20:52;;;;;;;5.70;5.20;;;1.10;99.90;;;;;;6200881;23;20426;-86
2021/03/19 00:23:41;;;;;;;5.37;4.87;;;1.10;99.90;;;;;;6199879;23;20427;-86
2021/03/19 00:27:02;;;;;;;4.87;4.47;;;1.10;99.90;;;;;;6163869;23;20815;-86
2021/03/19 00:29:31;;;;;;;5.57;4.13;;;1.00;99.90;;;;;;6140303;23;20436;-86
2021/03/19 00:32:00;;;;;;;5.73;5.23;;;1.00;99.90;;;;;;6164398;23;20508;-86
2021/03/19 00:34:30;;;;;;;5.63;5.13;;;1.00;99.90;;;;;;6139994;23;20413;-86
2021/03/19 00:37:00;;;;;;;4.97;4.27;;;0.90;99.90;;;;;;6140328;23;20476;-86
2021/03/19 00:39:29;;;;;;;5.10;4.33;;;0.90;99.90;;;;;;6163262;23;20440;-86
2021/03/19 00:42:01;;;;;;;5.30;4.80;;;0.90;99.90;;;;;;6171141;23;20418;-86
2021/03/19 00:44:33;;;;;;;5.57;4.40;;;0.90;99.90;;;;;;6201635;23;20402;-85
2021/03/19 00:47:01;;;;;;;5.73;4.53;;;0.90;99.90;;;;;;6199997;23;20423;-85
2021/03/19 00:49:40;;;;;;;6.30;5.77;;;0.80;99.90;;;;;;6200242;23;20434;-86
2021/03/19 00:52:28;;;;;;;;;;;;;;;;;;;;;
2021/03/19 00:55:22;;;;;;;5.60;4.40;;;0.80;99.90;;;;;;6200708;23;20469;-86
2021/03/19 00:58:08;;;;;;;5.40;4.90;;;0.80;99.90;;;;;;6200135;23;20513;-86
2021/03/19 01:00:38;;;;;;;5.20;4.70;;;0.80;99.90;;;;;;6200902;23;20449;-86
2021/03/19 01:03:16;;;;;;;6.70;4.83;;;0.70;99.90;;;;;;6199453;23;20434;-86
2021/03/19 01:06:05;;;;;;;;;;;;;;;;;;;;;
2021/03/19 01:08:52;;;;;;;5.87;5.20;;;0.70;99.90;;;;;;6197765;23;20434;-86
2021/03/19 01:11:43;;;;;;;5.83;4.60;;;0.70;99.90;;;;;;6236327;23;20399;-86
2021/03/19 01:14:26;;;;;;;5.43;5.03;;;0.60;99.90;;;;;;6200489;23;20726;-86
2021/03/19 01:17:13;;;;;;;;;;;;;;;;;;;;;
2021/03/19 01:20:01;;;;;;;5.17;4.40;;;0.60;99.90;;;;;;6200163;23;20448;-86
2021/03/19 01:23:06;;;;;;;5.87;4.70;;;0.60;99.90;;;;;;6237441;23;20458;-86
2021/03/19 01:29:18;;;;;;;5.27;4.23;;;0.60;99.90;;;;;;6236682;23;20435;-86
2021/03/19 01:32:00;;;;;;;4.80;4.30;;;0.50;99.90;;;;;;6198965;23;20433;-86
2021/03/19 01:35:01;;;;;;;6.00;4.30;;;0.50;99.90;;;;;;6199898;23;20411;-86
2021/03/19 01:38:03;;;;;;;5.23;4.13;;;0.50;99.90;;;;;;6235905;23;20421;-86
2021/03/19 01:40:37;;;;;;;6.07;4.43;;;0.50;99.90;;;;;;6200838;23;20440;-86
2021/03/19 01:43:11;;;;;;;4.67;4.23;;;0.50;99.90;;;;;;6198444;23;20426;-85
2021/03/19 01:46:40;;;;;;;4.47;4.07;;;0.50;99.90;;;;;;6196368;23;20415;-85
2021/03/19 01:49:47;;;;;;;5.00;4.33;;;0.40;99.90;;;;;;6200231;23;20441;-85
2021/03/19 01:53:06;;;;;;;6.57;4.00;;;0.40;99.90;;;;;;6202547;23;20424;-85
2021/03/19 01:56:11;;;;;;;4.90;4.30;;;0.40;99.90;;;;;;6109825;23;20507;-85
2021/03/19 01:59:12;;;;;;;5.70;5.00;;;0.40;99.90;;;;;;6144174;23;20417;-86
2021/03/19 02:02:17;;;;;;;4.23;3.77;;;0.30;99.90;;;;;;6161334;23;20464;-86
2021/03/19 02:05:24;;;;;;;4.60;4.20;;;0.30;99.90;;;;;;6200532;23;20499;-86
2021/03/19 02:08:29;;;;;;;5.20;4.00;;;0.30;99.90;;;;;;6200452;23;20438;-86
2021/03/19 02:11:37;;;;;;;4.80;4.07;;;0.30;99.90;;;;;;6200004;23;20980;-86
2021/03/19 02:14:42;;;;;;;5.37;4.13;;;0.30;99.90;;;;;;6162671;23;20418;-86
2021/03/19 02:17:47;;;;;;;6.30;4.73;;;0.20;99.90;;;;;;6200752;23;20746;-86
2021/03/19 02:20:55;;;;;;;6.80;4.93;;;0.20;99.90;;;;;;6200801;23;20426;-86
2021/03/19 02:24:03;;;;;;;4.83;4.37;;;0.20;99.90;;;;;;6200770;23;20434;-86
2021/03/19 02:27:09;;;;;;;5.50;4.40;;;0.20;99.90;;;;;;6201015;23;20816;-86
2021/03/19 02:30:18;;;;;;;4.53;4.13;;;0.10;99.90;;;;;;6201142;23;20529;-86
2021/03/19 02:32:47;;;;;;;4.30;3.90;;;0.10;99.90;;;;;;6201179;23;20466;-86
2021/03/19 02:35:18;;;;;;;4.20;3.80;;;0.10;99.90;;;;;;6200868;23;20477;-86
2021/03/19 02:37:46;;;;;;;5.23;4.47;;;0.10;99.90;;;;;;6201382;23;20445;-86
2021/03/19 02:40:16;;;;;;;5.03;4.00;;;0.10;99.90;;;;;;6200362;23;20419;-86
2021/03/19 02:42:48;;;;;;;4.00;3.47;;;0.10;99.90;;;;;;6227327;23;20422;-86
2021/03/19 02:45:39;;;;;;;4.40;3.97;;;0.00;99.90;;;;;;6201021;23;20477;-86
2021/03/19 02:48:13;;;;;;;4.63;3.80;;;0.00;99.90;;;;;;6195457;23;20465;-86
2021/03/19 02:50:46;;;;;;;4.97;4.47;;;0.00;99.90;;;;;;6200266;23;20410;-86
2021/03/19 02:53:35;;;;;;;6.20;3.67;;;0.00;99.90;;;;;;6201042;23;20403;-86
2021/03/19 02:56:27;;;;;;;5.20;4.10;;;0.00;99.90;;;;;;6200847;23;20399;-86
2021/03/19 02:59:11;;;;;;;4.13;3.53;;;0.00;99.90;;;;;;6202336;23;20442;-86
2021/03/19 03:02:02;;;;;;;4.23;3.53;;;0.00;99.90;;;;;;6202210;23;20411;-86
2021/03/19 03:04:37;;;;;;;5.40;4.30;;;0.00;99.90;;;;;;6202489;23;20431;-86
2021/03/19 03:07:04;;;;;;;5.40;4.03;;;-0.10;99.90;;;;;;6206313;23;20410;-85
2021/03/19 03:09:35;;;;;;;4.10;3.60;;;0.00;99.90;;;;;;6201220;23;20439;-85
2021/03/19 03:12:05;;;;;;;4.40;3.97;;;-0.10;99.90;;;;;;6201495;23;20460;-85
2021/03/19 03:14:40;;;;;;;5.20;3.83;;;-0.10;99.90;;;;;;6202137;23;20402;-86
2021/03/19 03:17:11;;;;;;;5.27;4.40;;;-0.10;99.90;;;;;;6202560;23;20419;-86
2021/03/19 03:20:15;;;;;;;4.60;4.20;;;-0.10;99.90;;;;;;6227904;23;20522;-86
2021/03/19 03:23:02;;;;;;;4.80;4.00;;;-0.20;99.90;;;;;;6196383;23;20437;-86
2021/03/19 03:25:48;;;;;;;4.70;4.37;;;-0.20;99.90;;;;;;6195598;23;20422;-86
2021/03/19 03:28:28;;;;;;;5.20;4.33;;;-0.10;99.90;;;;;;6230961;23;20461;-86
2021/03/19 03:30:58;;;;;;;4.50;3.80;;;-0.20;99.90;;;;;;6201808;23;20414;-86
2021/03/19 03:33:26;;;;;;;5.00;4.50;;;-0.20;99.90;;;;;;6203536;23;20402;-86
2021/03/19 03:36:02;;;;;;;5.50;4.67;;;-0.20;99.90;;;;;;6203200;23;20422;-86
2021/03/19 03:38:50;;;;;;;5.13;4.63;;;-0.30;99.90;;;;;;6239634;23;20472;-86
2021/03/19 03:41:23;;;;;;;5.33;4.83;;;-0.30;99.90;;;;;;6202793;23;20414;-86
2021/03/19 03:43:59;;;;;;;6.13;4.13;;;-0.30;99.90;;;;;;6203048;23;20809;-86
2021/03/19 03:46:53;;;;;;;5.30;4.80;;;-0.30;99.90;;;;;;6203503;23;20407;-86
2021/03/19 03:49:45;;;;;;;6.40;4.90;;;-0.30;99.90;;;;;;6204349;23;20458;-85
2021/03/19 03:55:57;;;;;;;5.67;5.07;;;-0.40;99.90;;;;;;6210889;23;20430;-85
2021/03/19 03:58:45;;;;;;;6.00;5.10;;;-0.40;99.90;;;;;;6205774;23;20512;-85
2021/03/19 04:01:28;;;;;;;6.07;5.10;;;-0.40;99.90;;;;;;6205767;23;20414;-85
2021/03/19 04:04:48;;;;;;;5.63;4.70;;;-0.40;99.90;;;;;;6206001;23;20458;-85
2021/03/19 04:07:23;;;;;;;6.00;5.40;;;-0.40;99.90;;;;;;6203082;23;20416;-86
2021/03/19 04:09:54;;;;;;;5.70;5.20;;;-0.20;99.90;;;;;;6205951;23;20172;-86
2021/03/19 04:13:01;;;;;;;5.80;5.20;;;-0.20;99.90;;;;;;6205952;23;20415;-86
2021/03/19 04:16:11;;;;;;;6.70;5.50;;;-0.30;99.90;;;;;;6229581;23;20440;-86
2021/03/19 04:18:40;;;;;;;5.37;4.93;;;-0.40;99.90;;;;;;6205562;23;20191;-86
2021/03/19 04:21:09;;;;;;;5.30;4.80;;;-0.40;99.90;;;;;;6206238;23;20427;-85
2021/03/19 04:23:39;;;;;;;6.63;6.00;;;-0.40;99.90;;;;;;6204757;23;20435;-85
2021/03/19 04:26:22;;;;;;;6.20;5.60;;;-0.40;99.90;;;;;;6205546;23;20411;-86
2021/03/19 04:28:52;;;;;;;6.77;6.17;;;-0.50;99.90;;;;;;6204558;23;20438;-86
2021/03/19 04:31:21;;;;;;;5.83;5.30;;;-0.50;99.90;;;;;;6205863;23;20741;-86
2021/03/19 04:33:55;;;;;;;6.17;5.57;;;-0.50;99.90;;;;;;6205239;23;20423;-86
2021/03/19 04:36:42;;;;;;;5.57;5.10;;;-0.50;99.90;;;;;;6206262;23;20422;-86
2021/03/19 04:39:15;;;;;;;7.10;6.13;;;-0.60;99.90;;;;;;6204836;23;20492;-86
2021/03/19 04:41:47;;;;;;;9.70;7.20;;;-0.60;99.90;;;;;;6181370;23;20421;-86
2021/03/19 04:44:18;;;;;;;12.03;8.70;;;-0.60;99.90;;;;;;6205659;23;20426;-86
2021/03/19 04:46:46;;;;;;;10.90;9.50;;;-0.60;99.90;;;;;;6206176;23;20759;-85
2021/03/19 04:49:19;;;;;;;15.40;12.07;;;-0.60;99.90;;;;;;6205876;23;20541;-86
2021/03/19 04:52:07;;;;;;;18.77;11.63;;;-0.60;99.90;;;;;;6241318;23;20390;-86
2021/03/19 04:55:02;;;;;;;;;;;;;;;;;;;;;
2021/03/19 04:57:57;;;;;;;14.30;10.73;;;-0.60;99.90;;;;;;6205909;23;20466;-86
2021/03/19 05:01:11;;;;;;;11.17;9.33;;;-0.70;99.90;;;;;;6217227;23;20425;-86
2021/03/19 05:04:16;;;;;;;;;;;;;;;;;;;;;
2021/03/19 05:07:16;;;;;;;;;;;;;;;;;;;;;
2021/03/19 05:10:14;;;;;;;10.10;6.20;;;-0.70;99.90;;;;;;6242418;23;20411;-86
2021/03/19 05:13:23;;;;;;;6.87;6.20;;;-0.70;99.90;;;;;;6231633;23;20410;-86
2021/03/19 05:15:59;;;;;;;9.30;6.77;;;-0.70;99.90;;;;;;6205713;23;20407;-86
2021/03/19 05:19:07;;;;;;;;;;;;;;;;;;;;;
2021/03/19 05:22:29;;;;;;;6.60;5.97;;;-0.70;99.90;;;;;;6205435;23;20422;-86
2021/03/19 05:25:51;;;;;;;;;;;;;;;;;;;;;
2021/03/19 05:29:03;;;;;;;6.87;5.87;;;-0.80;99.90;;;;;;6205010;23;20476;-86
2021/03/19 05:32:19;;;;;;;;;;;;;;;;;;;;;
2021/03/19 05:35:06;;;;;;;6.70;5.87;;;-0.80;99.90;;;;;;6083556;23;20418;-86
2021/03/19 05:37:52;;;;;;;;;;;;;;;;;;;;;
2021/03/19 05:40:52;;;;;;;;;;;;;;;;;;;;;
2021/03/19 05:44:11;;;;;;;7.10;6.50;;;-0.80;99.90;;;;;;6241324;23;20429;-86
2021/03/19 05:47:15;;;;;;;6.33;5.73;;;-0.80;99.90;;;;;;6206346;23;20407;-86
2021/03/19 05:50:40;;;;;;;8.10;6.57;;;-0.80;99.90;;;;;;6102195;23;20419;-86
2021/03/19 05:56:31;;;;;;;6.43;5.83;;;-0.80;99.90;;;;;;6179556;23;20430;-86
2021/03/19 05:59:24;;;;;;;9.83;6.30;;;-0.80;99.90;;;;;;6185747;23;20422;-86
2021/03/19 06:02:45;;;;;;;;;;;;;;;;;;;;;
2021/03/19 06:06:42;;;;;;;7.43;6.30;;;-0.80;99.90;;;;;;6141706;23;20437;-86
2021/03/19 06:09:28;;;;;;;6.20;5.70;;;-0.80;99.90;;;;;;6242306;23;20433;-86
2021/03/19 06:11:59;;;;;;;6.57;6.07;;;-0.80;99.90;;;;;;6205722;23;20417;-86
2021/03/19 06:14:30;;;;;;;7.00;6.30;;;-0.80;99.90;;;;;;6204583;23;20820;-86
2021/03/19 06:17:24;;;;;;;6.67;6.00;;;-0.80;99.90;;;;;;6205683;23;20414;-86
2021/03/19 06:19:56;;;;;;;7.50;6.90;;;-0.70;99.90;;;;;;6204715;23;20431;-86
2021/03/19 06:22:42;;;;;;;7.40;6.60;;;-0.70;99.90;;;;;;6204930;23;20441;-86
2021/03/19 06:25:19;;;;;;;7.90;7.10;;;-0.70;99.90;;;;;;6204999;23;20431;-86
2021/03/19 06:27:52;;;;;;;8.40;7.00;;;-0.60;99.90;;;;;;6205187;23;20441;-86
2021/03/19 06:30:30;;;;;;;9.07;8.17;;;-0.50;99.90;;;;;;6204308;23;20445;-86
2021/03/19 06:33:07;;;;;;;8.80;7.93;;;-0.30;99.90;;;;;;6205572;23;20433;-86
2021/03/19 06:35:36;;;;;;;7.77;6.77;;;-0.10;99.90;;;;;;6204590;23;20870;-86
2021/03/19 06:38:34;;;;;;;9.50;7.33;;;0.20;99.90;;;;;;6204527;23;20426;-86
2021/03/19 06:41:19;;;;;;;7.70;7.00;;;0.30;99.90;;;;;;6154888;23;20421;-86
2021/03/19 06:43:47;;;;;;;8.43;7.30;;;0.60;99.90;;;;;;6205064;23;20441;-86
2021/03/19 06:46:19;;;;;;;7.87;7.10;;;0.80;99.90;;;;;;6205526;23;20425;-87
2021/03/19 06:49:02;;;;;;;7.93;7.17;;;1.00;99.90;;;;;;6205179;23;20753;-86
2021/03/19 06:51:40;;;;;;;6.83;6.30;;;1.20;99.90;;;;;;6205860;23;20415;-86
2021/03/19 06:54:12;;;;;;;6.60;6.00;;;1.30;99.90;;;;;;6206913;23;20412;-86
2021/03/19 06:56:41;;;;;;;7.57;6.97;;;1.40;99.90;;;;;;6205274;23;20402;-86
2021/03/19 06:59:19;;;;;;;6.17;5.70;;;1.50;99.90;;;;;;6204344;23;20502;-86
2021/03/19 07:01:52;;;;;;;7.40;6.80;;;1.50;99.90;;;;;;6204342;23;20812;-86
2021/03/19 07:04:52;;;;;;;6.80;6.20;;;1.60;99.90;;;;;;6202275;23;20426;-86
2021/03/19 07:07:47;;;;;;;8.10;7.40;;;1.60;99.90;;;;;;6205919;23;20784;-87
2021/03/19 07:10:38;;;;;;;7.00;6.30;;;1.60;99.90;;;;;;6205890;23;20442;-87
2021/03/19 07:13:36;;;;;;;7.70;7.10;;;1.70;99.90;;;;;;6206199;23;20449;-87
2021/03/19 07:16:13;;;;;;;7.10;6.50;;;1.70;99.90;;;;;;6243457;23;20379;-87
2021/03/19 07:19:02;;;;;;;7.00;6.50;;;1.70;99.90;;;;;;6206786;23;20442;-87
2021/03/19 07:22:00;;;;;;;8.67;7.90;;;1.70;99.90;;;;;;6206279;23;20418;-87
2021/03/19 07:25:18;;;;;;;8.33;7.53;;;1.70;99.90;;;;;;6205996;23;21019;-87
2021/03/19 07:28:01;;;;;;;9.83;8.70;;;1.70;99.90;;;;;;6125193;23;20438;-87
2021/03/19 07:30:36;;;;;;;8.00;7.30;;;1.70;99.90;;;;;;6206311;23;20411;-87
2021/03/19 07:33:38;;;;;;;7.67;7.07;;;1.80;99.90;;;;;;6206680;23;20416;-87
2021/03/19 07:36:19;;;;;;;8.53;7.83;;;1.80;99.90;;;;;;6206527;23;20433;-87
2021/03/19 07:45:34;;;;;;;8.40;7.60;;;1.80;99.90;;;;;;6223079;22;20436;-93
2021/03/19 07:57:08;;;;;;;8.53;7.83;;;2.10;99.90;;;;;;6066412;23;20408;-93
2021/03/19 08:00:19;;;;;;;7.97;7.17;;;2.20;99.90;;;;;;6073560;23;20503;-94
2021/03/19 08:04:03;;;;;;;;;;;;;;;;;;;;;
2021/03/19 08:07:39;;;;;;;8.23;7.63;;;2.70;99.90;;;;;;6062691;23;20415;-94
2021/03/19 08:11:13;;;;;;;6.53;6.03;;;3.00;99.90;;;;;;6058589;23;20427;-93
2021/03/19 08:17:37;;;;;;;6.20;5.60;;;3.70;99.90;;;;;;6211688;23;20482;-93
2021/03/19 08:21:22;;;;;;;4.97;4.57;;;4.00;99.90;;;;;;6220363;23;20466;-93
2021/03/19 08:25:23;;;;;;;;;;;;;;;;;;;;;
2021/03/19 08:29:10;;;;;;;5.97;5.37;;;4.60;99.90;;;;;;6018619;23;20488;-94
2021/03/19 08:31:49;;;;;;;4.40;3.70;;;4.80;99.90;;;;;;6164199;22;20454;-87
2021/03/19 08:34:42;;;;;;;4.20;3.80;;;5.00;99.90;;;;;;6234049;23;20402;-88
2021/03/19 08:37:36;;;;;;;;;;;;;;;;;;;;;
2021/03/19 08:40:19;;;;;;;4.97;3.80;;;5.40;99.90;;;;;;6204630;23;20410;-89
2021/03/19 08:43:00;;;;;;;5.10;4.60;;;5.60;99.90;;;;;;6203233;23;20438;-88
2021/03/19 08:45:31;;;;;;;4.27;3.87;;;5.80;99.90;;;;;;6203857;23;20440;-88
2021/03/19 08:48:06;;;;;;;5.67;4.50;;;5.90;99.90;;;;;;6202625;23;20433;-89
2021/03/19 08:50:41;;;;;;;5.03;3.70;;;6.10;99.90;;;;;;6203332;23;20415;-88
2021/03/19 08:53:30;;;;;;;5.40;3.53;;;6.20;99.90;;;;;;6201015;23;20909;-88
2021/03/19 08:56:50;;;;;;;5.13;4.00;;;6.10;99.90;;;;;;6220397;23;20411;-88
2021/03/19 08:59:55;;;;;;;4.87;3.97;;;6.00;99.90;;;;;;6200808;23;20517;-88
2021/03/19 09:10:52;;;;;;;7.63;5.57;;;5.90;99.90;;;;;;6207189;23;20398;-87
2021/03/19 09:13:25;;;;;;;5.73;5.00;;;5.90;99.90;;;;;;6207474;23;20456;-87
2021/03/19 09:15:55;;;;;;;8.57;6.40;;;5.90;99.90;;;;;;6208121;23;20821;-87
2021/03/19 09:18:41;;;;;;;8.30;4.83;;;6.00;99.90;;;;;;6207552;23;20439;-87
2021/03/19 09:21:27;;;;;;;6.23;5.50;;;6.10;99.90;;;;;;6207895;23;20861;-87
2021/03/19 09:24:09;;;;;;;5.30;4.80;;;6.10;99.90;;;;;;6206587;23;20427;-87
2021/03/19 09:26:51;;;;;;;5.77;4.53;;;6.30;99.90;;;;;;6207993;23;20472;-87
2021/03/19 09:29:32;;;;;;;5.47;4.97;;;6.30;99.90;;;;;;6202051;23;20439;-87
2021/03/19 09:32:31;;;;;;;6.07;4.97;;;6.40;99.90;;;;;;6200011;23;20422;-87
2021/03/19 09:35:33;;;;;;;5.30;4.80;;;6.40;99.90;;;;;;6201445;23;20410;-87
2021/03/19 09:38:07;;;;;;;5.80;4.82;;;6.30;99.90;;;;;;6205221;23;20417;-87
2021/03/19 09:40:55;;;;;;;6.37;4.63;;;6.50;99.90;;;;;;6201606;23;20477;-87
2021/03/19 09:43:44;;;;;;;5.00;4.50;;;6.60;99.90;;;;;;6237406;23;20387;-87
2021/03/19 09:46:24;;;;;;;5.30;4.77;;;6.70;99.90;;;;;;6200449;23;20474;-87
2021/03/19 09:49:00;;;;;;;6.13;5.03;;;6.80;99.90;;;;;;6200326;23;20763;-87
2021/03/19 09:51:40;;;;;;;5.80;5.20;;;6.90;99.90;;;;;;6200681;23;20407;-87
2021/03/19 09:54:42;;;;;;;5.10;4.60;;;7.00;99.90;;;;;;6201769;23;20426;-87
2021/03/19 09:57:23;;;;;;;4.80;4.30;;;7.10;99.90;;;;;;6202033;23;20420;-87
2021/03/19 09:59:55;;;;;;;4.33;3.63;;;7.20;99.90;;;;;;6202173;23;20445;-87
2021/03/19 10:02:34;;;;;;;5.30;4.30;;;7.40;99.90;;;;;;6203695;23;20407;-87
2021/03/19 10:05:16;;;;;;;5.37;4.17;;;7.40;99.90;;;;;;6200365;23;20465;-87
2021/03/19 10:07:49;;;;;;;5.53;4.30;;;7.50;99.90;;;;;;6200720;23;20434;-87
2021/03/19 10:10:35;;;;;;;6.80;4.10;;;7.50;99.90;;;;;;6200055;23;20406;-87
2021/03/19 10:13:22;;;;;;;6.53;5.60;;;7.50;99.90;;;;;;6204132;23;20956;-86
2021/03/19 10:15:54;;;;;;;5.53;4.47;;;7.60;99.90;;;;;;6204510;23;20453;-88
2021/03/19 10:18:34;;;;;;;4.23;3.80;;;7.60;99.90;;;;;;6201898;23;20434;-88
2021/03/19 10:21:15;;;;;;;7.23;4.60;;;7.60;99.90;;;;;;6205161;23;20418;-88
2021/03/19 10:23:56;;;;;;;6.03;4.60;;;7.60;99.90;;;;;;6205109;23;20433;-87
2021/03/19 10:26:36;;;;;;;5.60;4.43;;;7.60;99.90;;;;;;6205076;23;20411;-87
2021/03/19 10:29:11;;;;;;;4.80;4.07;;;7.60;99.90;;;;;;6198906;23;20439;-87
2021/03/19 10:31:55;;;;;;;;;;;;;;;;;;;;;
2021/03/19 10:34:47;;;;;;;7.47;4.87;;;7.60;99.90;;;;;;6196711;23;20510;-87
2021/03/19 10:37:33;;;;;;;4.90;4.27;;;7.60;99.90;;;;;;6195253;23;20423;-88
2021/03/19 10:40:17;;;;;;;4.27;3.87;;;7.60;99.90;;;;;;6195081;23;20434;-88
2021/03/19 10:42:53;;;;;;;4.57;4.10;;;7.60;99.90;;;;;;6199143;23;20406;-88
2021/03/19 10:46:06;;;;;;;4.80;3.70;;;7.60;99.90;;;;;;6198096;23;20490;-88
2021/03/19 10:48:56;;;;;;;5.80;3.87;;;7.60;99.90;;;;;;6199901;23;20445;-88
2021/03/19 10:52:20;;;;;;;3.80;3.40;;;7.60;99.90;;;;;;6181921;23;20426;-88
2021/03/19 10:58:35;;;;;;;4.50;3.70;;;7.60;99.90;;;;;;6112499;23;20448;-88
2021/03/19 11:01:34;;;;;;;4.30;3.50;;;7.60;99.90;;;;;;6195092;23;20893;-89
2021/03/19 11:04:23;;;;;;;4.10;3.53;;;7.50;99.90;;;;;;6194114;23;20442;-88
2021/03/19 11:06:53;;;;;;;7.20;4.10;;;7.50;99.90;;;;;;6196291;23;20423;-88
2021/03/19 11:09:23;;;;;;;4.70;3.93;;;7.60;99.90;;;;;;6195694;23;20434;-88
2021/03/19 11:11:54;;;;;;;4.37;3.47;;;7.50;99.90;;;;;;6196554;23;20920;-89
2021/03/19 11:14:32;;;;;;;5.13;3.60;;;7.50;99.90;;;;;;6195092;23;20411;-88
2021/03/19 11:17:20;;;;;;;4.20;3.47;;;7.40;99.90;;;;;;6232702;23;20504;-88
2021/03/19 11:20:00;;;;;;;4.50;3.70;;;7.30;99.90;;;;;;6195726;23;20444;-88
2021/03/19 11:22:37;;;;;;;4.47;3.87;;;7.40;99.90;;;;;;6199526;23;20413;-88
2021/03/19 11:25:44;;;;;;;4.20;3.80;;;7.40;99.90;;;;;;6197354;23;20430;-89
2021/03/19 11:28:39;;;;;;;4.70;3.53;;;7.50;99.90;;;;;;6149181;23;20473;-88
2021/03/19 11:31:25;;;;;;;4.97;3.70;;;7.40;99.90;;;;;;6202315;23;20430;-88
2021/03/19 11:34:06;;;;;;;4.17;3.60;;;7.50;99.90;;;;;;6198998;23;20406;-88
2021/03/19 11:36:58;;;;;;;3.70;2.97;;;7.50;99.90;;;;;;6196948;23;20445;-88
2021/03/19 11:39:41;;;;;;;3.60;3.10;;;7.50;99.90;;;;;;6198509;23;20461;-88
2021/03/19 11:42:24;;;;;;;4.17;3.67;;;7.60;99.90;;;;;;6234035;23;20419;-88
2021/03/19 11:44:58;;;;;;;4.20;3.47;;;7.60;99.90;;;;;;6197971;23;20430;-89
2021/03/19 11:47:28;;;;;;;5.40;3.50;;;7.70;99.90;;;;;;6199206;23;20732;-87
2021/03/19 11:50:20;;;;;;;4.70;3.80;;;7.70;99.90;;;;;;6200852;23;20469;-87
2021/03/19 11:53:17;;;;;;;4.32;3.10;;;7.70;99.90;;;;;;6236939;23;20424;-87
2021/03/19 11:55:59;;;;;;;3.47;3.13;;;7.90;99.90;;;;;;6179848;23;20183;-88
2021/03/19 11:58:35;;;;;;;5.50;3.63;;;7.90;99.90;;;;;;6201612;23;20438;-87
2021/03/19 12:01:06;;;;;;;3.40;3.10;;;7.90;99.90;;;;;;6202192;23;20444;-88
2021/03/19 12:03:45;;;;;;;3.60;2.90;;;7.90;99.90;;;;;;6200250;23;20490;-88
2021/03/19 12:06:15;;;;;;;3.90;3.00;;;7.90;99.90;;;;;;6201758;23;20453;-88
2021/03/19 12:08:47;;;;;;;3.70;3.33;;;7.90;99.90;;;;;;6196287;23;21019;-88
2021/03/19 12:11:22;;;;;;;3.67;3.27;;;7.90;99.90;;;;;;6196216;23;20897;-87
2021/03/19 12:13:51;;;;;;;3.60;2.73;;;8.00;99.90;;;;;;6242522;23;20406;-88
2021/03/19 12:16:24;;;;;;;4.93;3.00;;;8.10;99.90;;;;;;6201973;23;20415;-87
2021/03/19 12:18:58;;;;;;;7.13;3.50;;;8.20;99.90;;;;;;6202942;23;20494;-87
2021/03/19 12:21:27;;;;;;;3.50;3.10;;;8.20;99.90;;;;;;6202866;23;20967;-87
2021/03/19 12:23:58;;;;;;;3.97;2.70;;;8.10;99.90;;;;;;6202271;23;20474;-88
2021/03/19 12:26:28;;;;;;;3.20;2.70;;;8.20;99.90;;;;;;6201521;23;20454;-88
2021/03/19 12:29:02;;;;;;;5.20;3.80;;;8.20;99.90;;;;;;6200464;23;20464;-89
2021/03/19 12:31:30;;;;;;;2.70;2.50;;;8.20;99.90;;;;;;6202523;23;20916;-88
2021/03/19 12:33:59;;;;;;;4.40;4.00;;;8.20;99.90;;;;;;6240906;23;20434;-88
2021/03/19 12:36:30;;;;;;;4.30;3.23;;;8.20;99.90;;;;;;6201062;23;20402;-88
2021/03/19 12:39:01;;;;;;;3.83;2.90;;;8.30;99.90;;;;;;6199678;23;20438;-88
2021/03/19 12:41:30;;;;;;;5.30;4.40;;;8.30;99.90;;;;;;6236173;23;20432;-89
2021/03/19 12:44:01;;;;;;;4.87;2.60;;;8.30;99.90;;;;;;6199577;23;21004;-89
2021/03/19 12:46:33;;;;;;;3.10;2.23;;;8.20;99.90;;;;;;6236484;23;20379;-88
2021/03/19 12:49:03;;;;;;;3.57;2.27;;;8.20;99.90;;;;;;6202082;23;20529;-88
2021/03/19 12:51:33;;;;;;;3.83;1.97;;;8.20;99.90;;;;;;6202766;23;20407;-88
2021/03/19 12:54:04;;;;;;;2.70;2.47;;;8.20;99.90;;;;;;6203736;23;20441;-87
2021/03/19 12:56:34;;;;;;;4.63;2.70;;;8.30;99.90;;;;;;6205118;23;20426;-87
2021/03/19 12:59:08;;;;;;;2.90;2.20;;;8.30;99.90;;;;;;6203704;23;20453;-87
2021/03/19 13:01:45;;;;;;;5.23;2.90;;;8.30;99.90;;;;;;6203176;23;20498;-87
2021/03/19 13:04:14;;;;;;;3.70;2.57;;;8.30;99.90;;;;;;6201385;23;20434;-87
2021/03/19 13:06:42;;;;;;;3.33;3.03;;;8.20;99.90;;;;;;6203019;23;20418;-87
2021/03/19 13:09:12;;;;;;;3.67;2.80;;;8.30;99.90;;;;;;6203072;23;20447;-87
2021/03/19 13:11:43;;;;;;;3.73;3.10;;;8.30;99.90;;;;;;6203281;23;20411;-87
2021/03/19 13:14:45;;;;;;;4.80;2.40;;;8.30;99.90;;;;;;6203345;23;20461;-87
2021/03/19 13:17:13;;;;;;;3.10;2.20;;;8.30;99.90;;;;;;6185758;23;20505;-87
2021/03/19 13:19:49;;;;;;;2.57;2.30;;;8.30;99.90;;;;;;6201293;23;20438;-87
2021/03/19 13:22:20;;;;;;;3.00;2.37;;;8.30;99.90;;;;;;6202980;23;20414;-87
2021/03/19 13:24:55;;;;;;;3.17;2.47;;;8.30;99.90;;;;;;6202781;23;20458;-87
2021/03/19 13:27:28;;;;;;;3.13;2.40;;;8.30;99.90;;;;;;6201803;23;20418;-87
2021/03/19 13:30:08;;;;;;;3.20;2.90;;;8.30;99.90;;;;;;6236295;23;20414;-87
2021/03/19 13:32:36;;;;;;;5.67;5.17;;;8.30;99.90;;;;;;6200479;23;20429;-87
2021/03/19 13:35:23;;;;;;;5.13;4.20;;;8.30;99.90;;;;;;6203787;23;20417;-87
2021/03/19 13:37:54;;;;;;;6.80;5.43;;;8.20;99.90;;;;;;6204401;23;20438;-87
2021/03/19 13:40:25;;;;;;;4.37;3.70;;;8.20;99.90;;;;;;6202455;23;20415;-87
2021/03/19 13:42:53;;;;;;;4.13;3.40;;;8.10;99.90;;;;;;6200929;23;20410;-87
2021/03/19 13:46:34;;;;;;;;;;;;;;;;;;;;;
2021/03/19 13:52:47;;;;;;;5.33;4.47;;;8.00;99.90;;;;;;6182894;23;20449;-87
2021/03/19 13:55:18;;;;;;;5.50;4.47;;;7.90;99.90;;;;;;6199113;23;20428;-87
2021/03/19 13:57:48;;;;;;;5.10;3.80;;;8.00;99.90;;;;;;6199815;23;20207;-87
2021/03/19 14:00:25;;;;;;;7.10;4.80;;;7.90;99.90;;;;;;6200486;23;20406;-87
2021/03/19 14:03:40;;;;;;;5.50;4.90;;;7.80;99.90;;;;;;6224297;23;20415;-87
2021/03/19 14:06:11;;;;;;;5.67;5.17;;;7.80;99.90;;;;;;6200073;23;20440;-87
2021/03/19 14:19:38;;;;;;;4.30;3.90;;;7.80;99.90;;;;;;5872372;24;20446;-86
2021/03/19 14:22:18;;;;;;;6.83;4.50;;;7.80;99.90;;;;;;5993537;23;20805;-87
2021/03/19 14:25:18;;;;;;;7.33;4.50;;;7.70;99.90;;;;;;6047616;23;20446;-87
2021/03/19 14:27:52;;;;;;;6.63;5.37;;;7.80;99.90;;;;;;6048582;23;20444;-88
2021/03/19 14:30:28;;;;;;;4.50;4.00;;;7.70;99.90;;;;;;6048188;23;20491;-88
2021/03/19 14:33:12;;;;;;;3.97;3.30;;;7.80;99.90;;;;;;6104366;23;20461;-88
2021/03/19 14:35:54;;;;;;;3.60;3.30;;;7.70;99.90;;;;;;6202263;23;20419;-88
2021/03/19 14:38:28;;;;;;;4.40;3.27;;;7.70;99.90;;;;;;6202065;23;20430;-88
2021/03/19 14:40:57;;;;;;;4.40;3.33;;;7.80;99.90;;;;;;6201387;23;20446;-88
2021/03/19 14:43:25;;;;;;;3.90;2.90;;;7.70;99.90;;;;;;6201430;23;20414;-88
2021/03/19 14:45:54;;;;;;;3.47;3.00;;;7.70;99.90;;;;;;6199931;23;20444;-87
2021/03/19 14:48:24;;;;;;;5.37;4.00;;;7.70;99.90;;;;;;6195296;23;20508;-87
2021/03/19 14:50:54;;;;;;;6.33;3.50;;;7.60;99.90;;;;;;6230160;23;20415;-87
2021/03/19 14:53:23;;;;;;;5.00;3.70;;;7.60;99.90;;;;;;6236478;23;20477;-87
2021/03/19 14:55:51;;;;;;;6.10;3.30;;;7.60;99.90;;;;;;6202151;23;20414;-88
2021/03/19 14:58:21;;;;;;;4.37;3.90;;;7.60;99.90;;;;;;6199747;23;20462;-87
2021/03/19 15:00:53;;;;;;;4.00;3.53;;;7.60;99.90;;;;;;6196365;23;20411;-87
2021/03/19 15:03:30;;;;;;;4.30;3.90;;;7.50;99.90;;;;;;6200612;23;20432;-88
2021/03/19 15:06:02;;;;;;;4.57;4.17;;;7.50;99.90;;;;;;6204136;23;20461;-88
2021/03/19 15:08:30;;;;;;;4.10;3.70;;;7.50;99.90;;;;;;6204105;23;20496;-87
2021/03/19 15:10:59;;;;;;;5.20;3.47;;;7.50;99.90;;;;;;6204483;23;20407;-87
2021/03/19 15:13:29;;;;;;;3.70;2.77;;;7.50;99.90;;;;;;6204266;23;20445;-87
2021/03/19 15:15:59;;;;;;;2.90;2.60;;;7.60;99.90;;;;;;6204326;23;20410;-87
2021/03/19 15:18:29;;;;;;;4.40;3.60;;;7.60;99.90;;;;;;6204354;23;20434;-88
2021/03/19 15:20:59;;;;;;;2.90;2.40;;;7.60;99.90;;;;;;6204205;23;20415;-88
2021/03/19 15:23:33;;;;;;;4.37;2.23;;;7.50;99.90;;;;;;6203631;23;20415;-87
2021/03/19 15:26:05;;;;;;;4.93;4.20;;;7.50;99.90;;;;;;6203075;23;20902;-87
2021/03/19 15:28:34;;;;;;;3.17;2.70;;;7.50;99.90;;;;;;6204136;23;20438;-87
2021/03/19 15:31:05;;;;;;;2.43;2.23;;;7.50;99.90;;;;;;6204049;23;20477;-87
2021/03/19 15:33:35;;;;;;;2.50;2.30;;;7.50;99.90;;;;;;6203190;23;20406;-87
2021/03/19 15:36:05;;;;;;;2.63;2.43;;;7.40;99.90;;;;;;6203147;23;20418;-87
2021/03/19 15:38:46;;;;;;;2.63;2.40;;;7.40;99.90;;;;;;6202662;23;20440;-88
2021/03/19 15:41:20;;;;;;;2.70;2.40;;;7.30;99.90;;;;;;6205336;23;20415;-87
2021/03/19 15:43:48;;;;;;;2.30;2.10;;;7.30;99.90;;;;;;6207869;23;20434;-87